createdAt,value
2018-12-29T00:01:25.755Z,101722.97
2018-12-29T00:03:53.524Z,101727.91
2018-12-29T00:06:21.324Z,101733.42
2018-12-29T00:08:49.111Z,101734.00
2018-12-29T00:11:16.929Z,101737.31
2018-12-29T00:13:44.725Z,101734.22
2018-12-29T00:16:13.041Z,101748.14
2018-12-29T00:18:40.791Z,101736.91
2018-12-29T00:21:08.857Z,101733.52
2018-12-29T00:23:37.153Z,101739.20
2018-12-29T00:26:05.056Z,101738.55
2018-12-29T00:28:33.264Z,101740.91
2018-12-29T00:31:01.555Z,101743.38
2018-12-29T00:33:29.312Z,101740.27
2018-12-29T00:35:59.983Z,101740.20
2018-12-29T00:38:28.107Z,101738.73
2018-12-29T00:40:56.236Z,101737.61
2018-12-29T00:43:25.220Z,101737.14
2018-12-29T00:45:53.418Z,101733.42
2018-12-29T00:48:21.418Z,101742.30
2018-12-29T00:50:49.582Z,101738.55
2018-12-29T00:53:17.326Z,101737.70
2018-12-29T00:55:45.802Z,101737.65
2018-12-29T00:58:13.715Z,101740.38
2018-12-29T01:00:41.527Z,101736.36
2018-12-29T01:03:09.704Z,101732.66
2018-12-29T01:05:37.524Z,101736.62
2018-12-29T01:08:05.272Z,101739.66
2018-12-29T01:10:33.509Z,101739.68
2018-12-29T01:13:01.408Z,101738.97
2018-12-29T01:15:29.200Z,101735.65
2018-12-29T01:17:57.321Z,101729.12
2018-12-29T01:20:25.344Z,101725.91
2018-12-29T01:22:53.047Z,101728.91
2018-12-29T01:25:23.002Z,101721.99
2018-12-29T01:27:50.995Z,101721.04
2018-12-29T01:30:18.796Z,101726.70
2018-12-29T01:32:47.063Z,101722.91
2018-12-29T01:35:14.975Z,101719.00
2018-12-29T01:37:43.175Z,101719.70
2018-12-29T01:40:10.994Z,101719.16
2018-12-29T01:42:39.335Z,101721.73
2018-12-29T01:45:07.717Z,101714.27
2018-12-29T01:47:35.573Z,101717.46
2018-12-29T01:50:05.902Z,101725.17
2018-12-29T01:52:33.698Z,101726.05
2018-12-29T01:55:01.503Z,101728.02
2018-12-29T01:57:29.620Z,101734.59
2018-12-29T01:59:57.412Z,101729.63
2018-12-29T02:02:25.348Z,101734.38
2018-12-29T02:04:53.090Z,101729.39
2018-12-29T02:07:20.914Z,101731.38
2018-12-29T02:09:51.441Z,101722.43
2018-12-29T02:12:19.246Z,101720.57
2018-12-29T02:14:47.028Z,101714.42
2018-12-29T02:17:15.813Z,101717.16
2018-12-29T02:19:43.632Z,101717.48
2018-12-29T02:22:11.416Z,101716.30
2018-12-29T02:24:39.182Z,101715.27
2018-12-29T02:27:06.959Z,101721.59
2018-12-29T02:29:35.018Z,101721.59
2018-12-29T02:32:02.962Z,101720.42
2018-12-29T02:34:30.977Z,101714.20
2018-12-29T02:36:58.742Z,101709.88
2018-12-29T02:39:26.847Z,101711.05
2018-12-29T02:41:54.786Z,101715.05
2018-12-29T02:44:23.282Z,101696.39
2018-12-29T02:46:51.109Z,101700.51
2018-12-29T02:49:18.852Z,101703.66
2018-12-29T02:51:47.167Z,101691.13
2018-12-29T02:54:14.924Z,101693.91
2018-12-29T02:56:42.696Z,101696.60
2018-12-29T02:59:10.524Z,101693.11
2018-12-29T03:01:38.266Z,101694.60
2018-12-29T03:04:07.838Z,101695.63
2018-12-29T03:06:35.707Z,101688.85
2018-12-29T03:09:05.185Z,101691.41
2018-12-29T03:11:33.039Z,101695.71
2018-12-29T03:14:01.615Z,101694.76
2018-12-29T03:16:29.425Z,101691.13
2018-12-29T03:18:57.217Z,101687.86
2018-12-29T03:21:26.989Z,101684.39
2018-12-29T03:23:58.126Z,101684.34
2018-12-29T03:26:26.065Z,101693.06
2018-12-29T03:28:54.018Z,101692.03
2018-12-29T03:31:22.255Z,101680.71
2018-12-29T03:33:50.080Z,101678.73
2018-12-29T03:36:18.354Z,101676.14
2018-12-29T03:38:46.257Z,101679.91
2018-12-29T03:41:13.996Z,101673.16
2018-12-29T03:43:42.285Z,101673.69
2018-12-29T03:46:10.097Z,101672.69
2018-12-29T03:48:38.067Z,101665.52
2018-12-29T03:51:05.921Z,101676.85
2018-12-29T03:53:33.730Z,101672.30
2018-12-29T03:56:01.832Z,101672.61
2018-12-29T03:58:29.856Z,101672.35
2018-12-29T04:00:57.718Z,101665.76
2018-12-29T04:03:25.946Z,101666.14
2018-12-29T04:05:53.778Z,101670.00
2018-12-29T04:08:21.725Z,101667.48
2018-12-29T04:10:49.493Z,101664.27
2018-12-29T04:13:17.249Z,101657.48
2018-12-29T04:15:45.400Z,101663.95
2018-12-29T04:18:13.198Z,101662.89
2018-12-29T04:20:41.573Z,101663.10
2018-12-29T04:23:09.344Z,101659.14
2018-12-29T04:25:37.578Z,101664.05
2018-12-29T04:28:05.355Z,101666.40
2018-12-29T04:30:34.091Z,101665.55
2018-12-29T04:33:01.886Z,101662.70
2018-12-29T04:35:30.074Z,101667.14
2018-12-29T04:37:57.946Z,101658.80
2018-12-29T04:40:25.932Z,101667.37
2018-12-29T04:42:53.682Z,101664.98
2018-12-29T04:45:21.481Z,101667.84
2018-12-29T04:47:49.617Z,101662.18
2018-12-29T04:50:17.512Z,101669.72
2018-12-29T04:52:45.235Z,101664.16
2018-12-29T04:55:13.158Z,101671.10
2018-12-29T04:57:40.915Z,101669.41
2018-12-29T05:00:09.127Z,101675.38
2018-12-29T05:02:36.883Z,101671.92
2018-12-29T05:05:05.285Z,101664.57
2018-12-29T05:07:33.190Z,101668.32
2018-12-29T05:10:00.973Z,101674.84
2018-12-29T05:12:29.745Z,101675.16
2018-12-29T05:14:57.683Z,101676.26
2018-12-29T05:17:25.732Z,101675.78
2018-12-29T05:19:53.783Z,101684.34
2018-12-29T05:22:21.561Z,101676.39
2018-12-29T05:24:49.468Z,101678.06
2018-12-29T05:27:17.268Z,101677.40
2018-12-29T05:29:45.014Z,101676.39
2018-12-29T05:32:12.804Z,101680.35
2018-12-29T05:34:40.787Z,101673.52
2018-12-29T05:37:08.594Z,101683.34
2018-12-29T05:39:36.462Z,101693.06
2018-12-29T05:42:04.210Z,101690.09
2018-12-29T05:44:32.196Z,101684.09
2018-12-29T05:46:59.986Z,101686.45
2018-12-29T05:49:28.344Z,101679.81
2018-12-29T05:51:56.122Z,101692.22
2018-12-29T05:54:24.015Z,101683.47
2018-12-29T05:56:52.064Z,101686.39
2018-12-29T05:59:19.816Z,101683.72
2018-12-29T06:01:47.627Z,101690.26
2018-12-29T06:04:15.788Z,101689.08
2018-12-29T06:06:43.557Z,101685.59
2018-12-29T06:09:11.404Z,101686.99
2018-12-29T06:11:39.261Z,101687.56
2018-12-29T06:14:07.045Z,101691.80
2018-12-29T06:16:36.144Z,101693.24
2018-12-29T06:19:04.120Z,101693.40
2018-12-29T06:21:31.892Z,101700.57
2018-12-29T06:24:01.088Z,101699.61
2018-12-29T06:26:28.912Z,101701.84
2018-12-29T06:28:56.668Z,101708.59
2018-12-29T06:31:24.461Z,101706.50
2018-12-29T06:33:52.309Z,101700.55
2018-12-29T06:36:20.105Z,101700.12
2018-12-29T06:38:48.087Z,101701.00
2018-12-29T06:41:15.823Z,101702.95
2018-12-29T06:43:43.641Z,101702.24
2018-12-29T06:46:11.533Z,101699.62
2018-12-29T06:48:39.294Z,101704.02
2018-12-29T06:51:07.058Z,101702.88
2018-12-29T06:53:34.847Z,101714.02
2018-12-29T06:56:02.928Z,101717.05
2018-12-29T06:58:33.525Z,101715.51
2018-12-29T07:01:01.319Z,101720.11
2018-12-29T07:03:29.075Z,101726.18
2018-12-29T07:05:56.852Z,101714.52
2018-12-29T07:08:24.713Z,101721.05
2018-12-29T07:10:52.481Z,101723.91
2018-12-29T07:13:20.300Z,101728.63
2018-12-29T07:15:48.155Z,101730.52
2018-12-29T07:18:15.938Z,101727.92
2018-12-29T07:20:43.851Z,101728.16
2018-12-29T07:23:12.225Z,101729.92
2018-12-29T07:25:40.176Z,101732.66
2018-12-29T07:28:08.337Z,101737.66
2018-12-29T07:30:36.232Z,101732.23
2018-12-29T07:33:06.484Z,101738.08
2018-12-29T07:35:34.658Z,101734.38
2018-12-29T07:38:02.448Z,101733.28
2018-12-29T07:40:30.210Z,101739.17
2018-12-29T07:42:58.044Z,101740.17
2018-12-29T07:45:25.840Z,101741.27
2018-12-29T07:47:53.665Z,101737.91
2018-12-29T07:50:21.961Z,101739.17
2018-12-29T07:52:52.336Z,101739.88
2018-12-29T07:55:23.676Z,101745.47
2018-12-29T07:57:51.636Z,101750.17
2018-12-29T08:00:19.781Z,101747.45
2018-12-29T08:02:47.572Z,101747.55
2018-12-29T08:05:15.572Z,101744.19
2018-12-29T08:07:43.524Z,101739.28
2018-12-29T08:10:11.585Z,101742.34
2018-12-29T08:12:39.524Z,101730.76
2018-12-29T08:15:07.521Z,101740.42
2018-12-29T08:17:35.283Z,101734.71
2018-12-29T08:20:03.383Z,101734.02
2018-12-29T08:22:31.168Z,101737.23
2018-12-29T08:24:59.078Z,101732.41
2018-12-29T08:27:26.831Z,101735.73
2018-12-29T08:29:54.600Z,101740.17
2018-12-29T08:32:22.394Z,101736.10
2018-12-29T08:34:50.204Z,101740.03
2018-12-29T08:37:18.007Z,101741.52
2018-12-29T08:39:46.576Z,101746.27
2018-12-29T08:42:14.356Z,101743.67
2018-12-29T08:44:42.136Z,101741.94
2018-12-29T08:47:09.910Z,101743.75
2018-12-29T08:49:37.688Z,101748.30
2018-12-29T08:52:05.487Z,101752.16
2018-12-29T08:54:33.300Z,101751.72
2018-12-29T08:57:01.129Z,101755.86
2018-12-29T08:59:28.927Z,101752.87
2018-12-29T09:01:56.741Z,101759.00
2018-12-29T09:04:24.511Z,101757.41
2018-12-29T09:06:52.277Z,101756.50
2018-12-29T09:09:20.047Z,101754.05
2018-12-29T09:11:47.837Z,101757.11
2018-12-29T09:14:15.679Z,101746.72
2018-12-29T09:16:43.464Z,101759.25
2018-12-29T09:19:11.220Z,101755.67
2018-12-29T09:21:39.002Z,101761.66
2018-12-29T09:24:06.773Z,101756.57
2018-12-29T09:26:34.634Z,101757.91
2018-12-29T09:29:02.446Z,101755.28
2018-12-29T09:31:30.275Z,101756.64
2018-12-29T09:33:58.093Z,101763.42
2018-12-29T09:36:25.876Z,101769.84
2018-12-29T09:38:53.638Z,101759.49
2018-12-29T09:41:21.383Z,101759.17
2018-12-29T09:43:49.138Z,101753.11
2018-12-29T09:46:16.936Z,101760.79
2018-12-29T09:48:44.739Z,101762.86
2018-12-29T09:51:12.519Z,101755.87
2018-12-29T09:53:40.312Z,101753.61
2018-12-29T09:56:08.096Z,101748.77
2018-12-29T09:58:35.881Z,101746.52
2018-12-29T10:01:03.625Z,101744.22
2018-12-29T10:03:31.370Z,101744.05
2018-12-29T10:05:59.157Z,101738.45
2018-12-29T10:08:26.914Z,101740.27
2018-12-29T10:10:54.698Z,101735.56
2018-12-29T10:13:22.476Z,101722.46
2018-12-29T10:15:50.314Z,101716.34
2018-12-29T10:18:18.104Z,101708.48
2018-12-29T10:20:47.124Z,101704.72
2018-12-29T10:23:14.900Z,101716.20
2018-12-29T10:25:42.730Z,101698.95
2018-12-29T10:28:10.496Z,101700.31
2018-12-29T10:30:38.403Z,101700.48
2018-12-29T10:33:06.317Z,101689.90
2018-12-29T10:35:34.080Z,101681.84
2018-12-29T10:38:01.926Z,101684.52
2018-12-29T10:40:29.700Z,101668.66
2018-12-29T10:43:00.126Z,101664.06
2018-12-29T10:45:27.850Z,101668.02
2018-12-29T10:47:57.548Z,101671.11
2018-12-29T10:50:25.318Z,101665.02
2018-12-29T10:52:53.105Z,101670.61
2018-12-29T10:55:20.868Z,101652.80
2018-12-29T10:57:49.048Z,101646.61
2018-12-29T11:00:16.869Z,101650.77
2018-12-29T11:02:44.684Z,101655.58
2018-12-29T11:05:12.472Z,101635.02
2018-12-29T11:07:40.330Z,101642.34
2018-12-29T11:10:08.130Z,101648.47
2018-12-29T11:12:35.904Z,101643.74
2018-12-29T11:15:03.656Z,101636.58
2018-12-29T11:17:31.492Z,101636.65
2018-12-29T11:19:59.305Z,101639.22
2018-12-29T11:22:27.132Z,101630.78
2018-12-29T11:24:54.905Z,101637.83
2018-12-29T11:27:22.771Z,101636.42
2018-12-29T11:29:50.550Z,101628.67
2018-12-29T11:32:18.335Z,101617.15
2018-12-29T11:34:46.159Z,101630.31
2018-12-29T11:37:13.981Z,101620.75
2018-12-29T11:39:42.155Z,101626.66
2018-12-29T11:42:09.928Z,101615.56
2018-12-29T11:44:37.741Z,101598.47
2018-12-29T11:47:05.549Z,101594.25
2018-12-29T11:49:33.347Z,101591.06
2018-12-29T11:52:01.155Z,101586.53
2018-12-29T11:54:29.011Z,101588.59
2018-12-29T11:56:56.867Z,101594.22
2018-12-29T11:59:24.961Z,101585.58
2018-12-29T12:01:52.709Z,101580.50
2018-12-29T12:04:21.699Z,101583.41
2018-12-29T12:06:49.477Z,101586.05
2018-12-29T12:09:17.477Z,101570.33
2018-12-29T12:11:45.325Z,101566.77
2018-12-29T12:14:13.152Z,101553.55
2018-12-29T12:16:40.940Z,101555.11
2018-12-29T12:19:08.729Z,101559.63
2018-12-29T12:21:36.811Z,101554.75
2018-12-29T12:24:04.623Z,101552.01
2018-12-29T12:26:32.421Z,101554.74
2018-12-29T12:29:00.231Z,101548.80
2018-12-29T12:31:28.332Z,101542.34
2018-12-29T12:33:56.103Z,101540.94
2018-12-29T12:36:24.327Z,101537.83
2018-12-29T12:38:52.089Z,101548.70
2018-12-29T12:41:20.186Z,101543.11
2018-12-29T12:43:47.937Z,101541.56
2018-12-29T12:46:16.101Z,101547.61
2018-12-29T12:48:45.058Z,101542.60
2018-12-29T12:51:12.942Z,101546.80
2018-12-29T12:53:40.727Z,101541.29
2018-12-29T12:56:08.498Z,101551.01
2018-12-29T12:58:36.291Z,101551.84
2018-12-29T13:01:04.528Z,101548.82
2018-12-29T13:03:32.580Z,101543.45
2018-12-29T13:06:00.746Z,101542.77
2018-12-29T13:08:28.539Z,101538.76
2018-12-29T13:10:56.350Z,101536.39
2018-12-29T13:13:24.140Z,101537.73
2018-12-29T13:15:51.967Z,101539.42
2018-12-29T13:18:19.798Z,101540.41
2018-12-29T13:20:47.625Z,101535.05
2018-12-29T13:23:15.351Z,101537.06
2018-12-29T13:25:43.182Z,101540.75
2018-12-29T13:28:11.060Z,101535.58
2018-12-29T13:30:38.900Z,101529.70
2018-12-29T13:33:06.705Z,101520.98
2018-12-29T13:35:34.503Z,101527.53
2018-12-29T13:38:02.378Z,101514.92
2018-12-29T13:40:30.130Z,101522.49
2018-12-29T13:42:58.256Z,101523.48
2018-12-29T13:45:26.068Z,101524.33
2018-12-29T13:47:53.861Z,101519.80
2018-12-29T13:50:21.627Z,101514.12
2018-12-29T13:52:49.470Z,101516.80
2018-12-29T13:55:17.563Z,101525.86
2018-12-29T13:57:45.364Z,101525.19
2018-12-29T14:00:13.131Z,101528.86
2018-12-29T14:02:40.915Z,101526.19
2018-12-29T14:05:10.916Z,101532.23
2018-12-29T14:07:39.054Z,101532.55
2018-12-29T14:10:06.866Z,101540.44
2018-12-29T14:12:34.723Z,101532.37
2018-12-29T14:15:02.492Z,101530.04
2018-12-29T14:17:30.306Z,101539.59
2018-12-29T14:19:58.134Z,101540.95
2018-12-29T14:22:25.935Z,101553.86
2018-12-29T14:24:53.801Z,101537.75
2018-12-29T14:27:21.688Z,101540.75
2018-12-29T14:29:49.503Z,101536.73
2018-12-29T14:32:17.361Z,101526.33
2018-12-29T14:34:45.121Z,101543.92
2018-12-29T14:37:12.958Z,101543.44
2018-12-29T14:39:40.765Z,101553.11
2018-12-29T14:42:08.569Z,101547.27
2018-12-29T14:44:36.415Z,101540.43
2018-12-29T14:47:04.321Z,101530.35
2018-12-29T14:49:32.098Z,101521.46
2018-12-29T14:52:00.281Z,101514.76
2018-12-29T14:54:28.167Z,101524.64
2018-12-29T14:56:56.148Z,101518.92
2018-12-29T14:59:24.221Z,101520.80
2018-12-29T15:01:52.057Z,101509.73
2018-12-29T15:04:19.874Z,101500.18
2018-12-29T15:06:47.653Z,101492.62
2018-12-29T15:09:15.454Z,101493.95
2018-12-29T15:11:43.638Z,101494.65
2018-12-29T15:14:11.446Z,101483.41
2018-12-29T15:16:41.409Z,101486.23
2018-12-29T15:19:09.323Z,101486.52
2018-12-29T15:21:37.099Z,101483.55
2018-12-29T15:24:04.914Z,101486.36
2018-12-29T15:26:32.696Z,101471.92
2018-12-29T15:29:00.491Z,101465.21
2018-12-29T15:31:28.284Z,101449.98
2018-12-29T15:33:56.103Z,101455.09
2018-12-29T15:36:24.272Z,101451.63
2018-12-29T15:38:52.083Z,101459.76
2018-12-29T15:41:19.912Z,101462.44
2018-12-29T15:43:48.014Z,101439.85
2018-12-29T15:46:15.772Z,101431.80
2018-12-29T15:48:50.916Z,101432.48
2018-12-29T15:51:13.256Z,101430.63
2018-12-29T15:53:41.089Z,101435.81
2018-12-29T15:56:08.854Z,101437.67
2018-12-29T15:58:36.730Z,101432.27
2018-12-29T16:01:04.525Z,101429.09
2018-12-29T16:03:32.454Z,101425.77
2018-12-29T16:06:00.256Z,101419.86
2018-12-29T16:08:28.342Z,101419.51
2018-12-29T16:10:56.193Z,101413.04
2018-12-29T16:13:23.980Z,101397.50
2018-12-29T16:15:51.803Z,101401.88
2018-12-29T16:18:19.894Z,101401.70
2018-12-29T16:20:53.551Z,101402.91
2018-12-29T16:23:17.509Z,101390.51
2018-12-29T16:25:45.589Z,101398.56
2018-12-29T16:28:13.417Z,101391.05
2018-12-29T16:30:41.238Z,101387.56
2018-12-29T16:33:09.015Z,101381.91
2018-12-29T16:35:36.826Z,101376.20
2018-12-29T16:38:04.979Z,101376.34
2018-12-29T16:40:33.718Z,101379.03
2018-12-29T16:43:04.608Z,101374.71
2018-12-29T16:45:32.417Z,101363.66
2018-12-29T16:48:00.221Z,101354.13
2018-12-29T16:50:28.035Z,101354.97
2018-12-29T16:52:56.219Z,101356.32
2018-12-29T16:55:24.016Z,101343.92
2018-12-29T16:57:51.855Z,101350.96
2018-12-29T17:00:19.775Z,101338.40
2018-12-29T17:02:47.559Z,101340.91
2018-12-29T17:05:15.389Z,101340.91
2018-12-29T17:07:43.166Z,101334.87
2018-12-29T17:10:10.936Z,101333.20
2018-12-29T17:12:38.690Z,101339.72
2018-12-29T17:15:06.806Z,101343.24
2018-12-29T17:17:34.655Z,101335.88
2018-12-29T17:20:02.493Z,101341.75
2018-12-29T17:22:30.674Z,101341.08
2018-12-29T17:24:58.523Z,101337.05
2018-12-29T17:27:26.332Z,101334.72
2018-12-29T17:29:54.418Z,101338.40
2018-12-29T17:32:24.091Z,101337.72
2018-12-29T17:34:51.892Z,101347.77
2018-12-29T17:37:19.712Z,101346.44
2018-12-29T17:39:47.531Z,101354.95
2018-12-29T17:42:15.322Z,101359.65
2018-12-29T17:44:43.085Z,101367.86
2018-12-29T17:47:11.034Z,101364.00
2018-12-29T17:49:38.859Z,101362.66
2018-12-29T17:52:06.664Z,101368.53
2018-12-29T17:54:34.496Z,101363.83
2018-12-29T17:57:02.484Z,101369.34
2018-12-29T17:59:30.261Z,101365.67
2018-12-29T18:01:58.089Z,101365.02
2018-12-29T18:04:26.162Z,101362.99
2018-12-29T18:06:54.077Z,101360.34
2018-12-29T18:09:22.176Z,101350.61
2018-12-29T18:11:50.137Z,101323.66
2018-12-29T18:14:17.952Z,101311.09
2018-12-29T18:16:45.775Z,101308.77
2018-12-29T18:19:15.431Z,101308.77
2018-12-29T18:21:43.324Z,101282.61
2018-12-29T18:24:11.161Z,101270.91
2018-12-29T18:26:39.316Z,101280.47
2018-12-29T18:29:07.413Z,101285.30
2018-12-29T18:31:35.219Z,101278.80
2018-12-29T18:34:03.045Z,101260.03
2018-12-29T18:36:30.885Z,101245.81
2018-12-29T18:38:58.687Z,101231.23
2018-12-29T18:41:26.689Z,101228.89
2018-12-29T18:43:54.580Z,101224.92
2018-12-29T18:46:22.459Z,101217.38
2018-12-29T18:48:50.231Z,101217.22
2018-12-29T18:51:21.728Z,101205.51
2018-12-29T18:53:49.757Z,101195.30
2018-12-29T18:56:17.588Z,101189.95
2018-12-29T18:58:45.466Z,101194.97
2018-12-29T19:01:14.329Z,101171.40
2018-12-29T19:03:42.228Z,101182.92
2018-12-29T19:06:10.078Z,101200.33
2018-12-29T19:08:38.293Z,101213.34
2018-12-29T19:11:08.108Z,101186.93
2018-12-29T19:13:36.223Z,101177.20
2018-12-29T19:16:04.303Z,101185.13
2018-12-29T19:18:32.108Z,101173.64
2018-12-29T19:21:00.439Z,101170.14
2018-12-29T19:23:28.520Z,101167.53
2018-12-29T19:25:56.714Z,101173.58
2018-12-29T19:28:24.911Z,101158.41
2018-12-29T19:30:52.812Z,101156.38
2018-12-29T19:33:20.942Z,101141.35
2018-12-29T19:35:49.234Z,101121.13
2018-12-29T19:38:17.513Z,101112.84
2018-12-29T19:40:45.697Z,101103.05
2018-12-29T19:43:14.881Z,101100.89
2018-12-29T19:45:42.754Z,101096.38
2018-12-29T19:48:10.593Z,101092.74
2018-12-29T19:50:38.375Z,101084.73
2018-12-29T19:53:06.181Z,101083.75
2018-12-29T19:55:33.986Z,101073.64
2018-12-29T19:58:01.781Z,101070.55
2018-12-29T20:00:29.806Z,101063.03
2018-12-29T20:02:57.601Z,101069.67
2018-12-29T20:05:25.777Z,101051.83
2018-12-29T20:07:53.579Z,101058.86
2018-12-29T20:10:21.427Z,101048.16
2018-12-29T20:12:49.511Z,101040.14
2018-12-29T20:15:17.641Z,101045.33
2018-12-29T20:17:45.397Z,101039.30
2018-12-29T20:20:13.169Z,101052.69
2018-12-29T20:22:41.804Z,101036.50
2018-12-29T20:25:09.605Z,101035.14
2018-12-29T20:27:37.399Z,101029.09
2018-12-29T20:30:06.988Z,101018.42
2018-12-29T20:32:34.814Z,101013.91
2018-12-29T20:35:02.732Z,101001.91
2018-12-29T20:37:30.768Z,100992.73
2018-12-29T20:39:58.630Z,100990.89
2018-12-29T20:42:27.198Z,100974.98
2018-12-29T20:44:54.978Z,100965.81
2018-12-29T20:47:22.942Z,100965.30
2018-12-29T20:49:50.758Z,100968.00
2018-12-29T20:52:18.562Z,100963.01
2018-12-29T20:54:46.386Z,100969.00
2018-12-29T20:57:14.464Z,100953.47
2018-12-29T20:59:42.269Z,100956.66
2018-12-29T21:02:10.126Z,100953.45
2018-12-29T21:04:37.888Z,100946.39
2018-12-29T21:07:05.650Z,100943.23
2018-12-29T21:09:33.460Z,100943.25
2018-12-29T21:12:01.586Z,100936.10
2018-12-29T21:14:29.410Z,100933.20
2018-12-29T21:16:57.219Z,100926.30
2018-12-29T21:19:25.116Z,100920.32
2018-12-29T21:21:52.948Z,100915.81
2018-12-29T21:24:20.734Z,100911.69
2018-12-29T21:26:48.826Z,100909.66
2018-12-29T21:29:16.657Z,100902.83
2018-12-29T21:31:44.425Z,100890.77
2018-12-29T21:34:12.228Z,100883.82
2018-12-29T21:36:40.092Z,100878.78
2018-12-29T21:39:07.909Z,100875.16
2018-12-29T21:41:35.863Z,100870.34
2018-12-29T21:44:03.917Z,100865.58
2018-12-29T21:46:31.759Z,100875.97
2018-12-29T21:48:59.522Z,100864.91
2018-12-29T21:51:27.351Z,100873.42
2018-12-29T21:53:55.161Z,100866.23
2018-12-29T21:56:22.975Z,100856.02
2018-12-29T21:58:50.803Z,100860.52
2018-12-29T22:01:18.597Z,100850.63
2018-12-29T22:03:46.401Z,100845.89
2018-12-29T22:06:14.241Z,100843.27
2018-12-29T22:08:42.033Z,100840.95
2018-12-29T22:11:09.839Z,100835.42
2018-12-29T22:13:37.605Z,100831.71
2018-12-29T22:16:05.390Z,100827.37
2018-12-29T22:18:33.235Z,100823.39
2018-12-29T22:21:01.059Z,100826.23
2018-12-29T22:23:28.841Z,100828.91
2018-12-29T22:25:56.656Z,100823.02
2018-12-29T22:28:24.504Z,100826.00
2018-12-29T22:30:52.476Z,100821.61
2018-12-29T22:33:20.267Z,100812.30
2018-12-29T22:35:48.230Z,100811.58
2018-12-29T22:38:16.510Z,100805.91
2018-12-29T22:40:44.312Z,100815.50
2018-12-29T22:43:12.194Z,100808.64
2018-12-29T22:45:39.922Z,100806.14
2018-12-29T22:48:08.022Z,100806.94
2018-12-29T22:50:41.031Z,100808.33
2018-12-29T22:53:05.532Z,100814.81
2018-12-29T22:55:33.313Z,100816.47
2018-12-29T22:58:08.388Z,100809.10
2018-12-29T23:00:40.955Z,100794.67
2018-12-29T23:03:08.891Z,100791.34
2018-12-29T23:05:36.776Z,100784.56
2018-12-29T23:08:04.941Z,100794.67
2018-12-29T23:10:32.715Z,100787.24
2018-12-29T23:13:01.120Z,100773.91
2018-12-29T23:15:28.964Z,100780.13
2018-12-29T23:17:56.743Z,100773.72
2018-12-29T23:20:24.554Z,100762.44
2018-12-29T23:22:52.381Z,100752.72
2018-12-29T23:25:20.133Z,100763.38
2018-12-29T23:27:48.020Z,100770.78
2018-12-29T23:30:15.747Z,100764.93
2018-12-29T23:32:43.843Z,100768.50
2018-12-29T23:35:11.590Z,100762.43
2018-12-29T23:37:39.385Z,100765.59
2018-12-29T23:40:07.351Z,100762.20
2018-12-29T23:42:35.179Z,100760.52
2018-12-29T23:45:03.100Z,100770.28
2018-12-29T23:47:31.153Z,100764.64
2018-12-29T23:49:59.300Z,100764.23
2018-12-29T23:52:27.172Z,100764.48
2018-12-29T23:54:54.989Z,100759.10
2018-12-29T23:57:22.822Z,100762.90
2018-12-29T23:59:51.017Z,100761.88
